createdAt,value
2018-08-31T00:01:37.657Z,66.99
2018-08-31T00:06:49.127Z,66.61
2018-08-31T00:12:47.421Z,66.15
2018-08-31T00:17:43.176Z,66.90
2018-08-31T00:22:37.818Z,65.74
2018-08-31T00:27:49.464Z,65.51
2018-08-31T00:33:09.944Z,66.06
2018-08-31T00:42:27.453Z,66.68
2018-08-31T00:47:22.059Z,67.22
2018-08-31T00:52:16.726Z,66.93
2018-08-31T00:57:11.396Z,66.83
2018-08-31T01:02:06.131Z,67.61
2018-08-31T01:07:00.829Z,67.57
2018-08-31T01:11:55.453Z,68.00
2018-08-31T01:16:50.034Z,67.72
2018-08-31T01:21:44.685Z,67.72
2018-08-31T01:26:39.370Z,67.35
2018-08-31T01:31:34.002Z,68.57
2018-08-31T01:36:28.729Z,68.85
2018-08-31T01:41:23.602Z,68.09
2018-08-31T01:46:18.198Z,68.59
2018-08-31T01:51:17.925Z,69.06
2018-08-31T01:56:12.547Z,69.16
2018-08-31T02:01:07.269Z,69.31
2018-08-31T02:06:01.888Z,67.83
2018-08-31T02:10:56.561Z,66.04
2018-08-31T02:15:51.172Z,65.61
2018-08-31T02:20:45.697Z,65.98
2018-08-31T02:25:40.312Z,65.92
2018-08-31T02:30:34.904Z,64.95
2018-08-31T02:35:29.553Z,63.96
2018-08-31T02:40:24.175Z,64.84
2018-08-31T02:45:18.748Z,66.10
2018-08-31T02:50:13.526Z,66.38
2018-08-31T02:55:08.353Z,66.16
2018-08-31T03:00:03.017Z,66.94
2018-08-31T03:04:57.789Z,66.26
2018-08-31T03:09:52.479Z,67.32
2018-08-31T03:14:47.125Z,65.51
2018-08-31T03:19:41.858Z,65.29
2018-08-31T03:24:36.754Z,64.78
2018-08-31T03:29:31.325Z,65.42
2018-08-31T03:34:25.920Z,64.52
2018-08-31T03:39:20.562Z,64.88
2018-08-31T03:44:15.127Z,64.40
2018-08-31T03:49:09.767Z,64.28
2018-08-31T03:54:04.566Z,64.07
2018-08-31T03:58:59.245Z,64.22
2018-08-31T04:03:53.988Z,64.67
2018-08-31T04:08:48.615Z,66.67
2018-08-31T04:13:43.281Z,68.68
2018-08-31T04:18:37.931Z,68.30
2018-08-31T04:23:32.557Z,70.47
2018-08-31T04:28:27.126Z,72.65
2018-08-31T04:33:21.712Z,76.87
2018-08-31T04:38:16.459Z,73.78
2018-08-31T04:43:11.118Z,71.95
2018-08-31T04:48:05.950Z,74.78
2018-08-31T04:53:00.609Z,81.13
2018-08-31T04:57:55.390Z,79.24
2018-08-31T05:02:50.284Z,80.64
2018-08-31T05:07:44.967Z,80.85
2018-08-31T05:12:39.686Z,80.50
2018-08-31T05:17:34.359Z,79.97
2018-08-31T05:22:29.011Z,80.39
2018-08-31T05:27:23.695Z,81.82
2018-08-31T05:32:18.355Z,82.90
2018-08-31T05:37:13.074Z,82.39
2018-08-31T05:42:08.422Z,82.94
2018-08-31T05:47:03.150Z,82.71
2018-08-31T05:51:57.901Z,81.69
2018-08-31T05:56:52.820Z,80.10
2018-08-31T06:01:47.770Z,78.34
2018-08-31T06:06:42.757Z,78.83
2018-08-31T06:11:37.829Z,78.58
2018-08-31T06:16:32.514Z,80.43
2018-08-31T06:21:27.279Z,80.54
2018-08-31T06:26:23.337Z,79.49
2018-08-31T06:31:18.062Z,79.79
2018-08-31T06:36:14.092Z,78.64
2018-08-31T06:41:09.403Z,77.21
2018-08-31T06:46:04.241Z,77.50
2018-08-31T06:51:00.353Z,77.33
2018-08-31T06:55:56.238Z,78.38
2018-08-31T07:00:51.049Z,78.37
2018-08-31T07:05:47.482Z,77.23
2018-08-31T07:10:42.484Z,77.07
2018-08-31T07:15:38.480Z,75.81
2018-08-31T07:20:33.464Z,76.55
2018-08-31T07:25:44.623Z,76.38
2018-08-31T07:30:39.918Z,76.19
2018-08-31T07:35:34.839Z,75.53
2018-08-31T07:40:33.190Z,75.73
2018-08-31T07:45:29.431Z,76.90
2018-08-31T07:50:24.895Z,76.04
2018-08-31T07:55:19.920Z,76.01
2018-08-31T08:00:15.033Z,75.73
2018-08-31T08:05:11.682Z,74.20
2018-08-31T08:10:07.234Z,71.69
2018-08-31T08:15:02.862Z,70.31
2018-08-31T08:19:59.017Z,69.77
2018-08-31T08:24:55.538Z,70.32
2018-08-31T08:29:51.814Z,70.50
2018-08-31T08:34:48.043Z,71.99
2018-08-31T08:39:44.334Z,73.11
2018-08-31T08:44:39.769Z,74.18
2018-08-31T08:49:35.204Z,75.04
2018-08-31T08:54:36.760Z,74.71
2018-08-31T08:59:32.234Z,74.48
2018-08-31T09:04:30.661Z,74.31
2018-08-31T09:09:28.732Z,75.19
2018-08-31T09:14:23.646Z,75.20
2018-08-31T09:19:18.558Z,75.08
2018-08-31T09:24:14.459Z,73.60
2018-08-31T09:29:10.002Z,75.45
2018-08-31T09:34:16.665Z,73.74
2018-08-31T09:39:15.925Z,73.97
2018-08-31T09:44:10.725Z,71.86
2018-08-31T09:49:06.804Z,73.61
2018-08-31T09:54:01.879Z,71.54
2018-08-31T09:58:59.944Z,70.41
2018-08-31T10:04:02.989Z,71.09
2018-08-31T10:08:58.301Z,72.59
2018-08-31T10:13:53.848Z,70.90
2018-08-31T10:18:48.658Z,70.21
2018-08-31T10:23:43.481Z,72.07
2018-08-31T10:28:38.637Z,72.84
2018-08-31T10:33:35.121Z,73.20
2018-08-31T10:38:29.978Z,75.29
2018-08-31T10:43:26.377Z,76.16
2018-08-31T10:48:21.410Z,74.88
2018-08-31T10:53:17.380Z,75.43
2018-08-31T10:58:12.619Z,75.80
2018-08-31T11:03:08.800Z,76.92
2018-08-31T11:08:03.894Z,77.77
2018-08-31T11:12:59.150Z,77.14
2018-08-31T11:17:54.179Z,77.14
2018-08-31T11:22:49.301Z,76.47
2018-08-31T11:27:44.121Z,75.71
2018-08-31T11:32:39.516Z,73.58
2018-08-31T11:37:34.597Z,75.42
2018-08-31T11:42:32.600Z,77.41
2018-08-31T11:47:30.597Z,75.40
2018-08-31T11:52:28.099Z,76.78
2018-08-31T11:57:22.891Z,77.54
2018-08-31T12:02:17.761Z,79.89
2018-08-31T12:07:14.989Z,78.71
2018-08-31T12:12:09.717Z,78.77
2018-08-31T12:17:04.581Z,78.14
2018-08-31T12:21:59.873Z,77.96
2018-08-31T12:26:54.611Z,78.97
2018-08-31T12:31:49.232Z,77.38
2018-08-31T12:36:43.897Z,79.14
2018-08-31T12:57:52.817Z,78.49
2018-08-31T13:02:51.371Z,77.15
2018-08-31T13:07:46.193Z,76.33
2018-08-31T13:12:40.870Z,77.19
2018-08-31T13:17:35.439Z,78.19
2018-08-31T13:38:44.979Z,76.15
2018-08-31T13:43:39.630Z,77.42
2018-08-31T13:48:35.329Z,75.49
2018-08-31T13:53:30.029Z,75.64
2018-08-31T13:58:24.596Z,75.03
2018-08-31T14:19:33.901Z,77.25
2018-08-31T14:24:28.522Z,76.97
2018-08-31T14:29:35.229Z,76.77
2018-08-31T14:34:30.241Z,75.80
2018-08-31T14:39:24.913Z,75.33
2018-08-31T15:00:34.676Z,76.01
2018-08-31T15:05:29.314Z,76.44
2018-08-31T15:10:23.801Z,77.04
2018-08-31T15:15:19.699Z,77.30
2018-08-31T15:20:15.461Z,77.94
2018-08-31T15:25:10.073Z,78.46
2018-08-31T15:30:04.824Z,76.81
2018-08-31T15:34:59.348Z,77.75
2018-08-31T15:56:08.800Z,80.29
2018-08-31T16:01:03.273Z,80.61
2018-08-31T16:05:57.857Z,81.12
2018-08-31T16:10:52.367Z,81.77
2018-08-31T16:15:46.952Z,81.12
2018-08-31T16:36:55.979Z,81.16
2018-08-31T16:41:50.501Z,79.19
2018-08-31T16:46:45.052Z,80.06
2018-08-31T16:51:39.563Z,79.84
2018-08-31T16:56:34.197Z,80.60
2018-08-31T17:17:43.005Z,82.34
2018-08-31T17:22:37.632Z,83.09
2018-08-31T17:27:37.124Z,83.19
2018-08-31T17:32:36.608Z,82.32
2018-08-31T17:37:32.664Z,84.22
2018-08-31T17:58:41.625Z,84.26
2018-08-31T18:03:36.140Z,85.76
2018-08-31T18:08:30.624Z,85.32
2018-08-31T18:13:25.120Z,85.40
2018-08-31T18:18:19.732Z,86.06
2018-08-31T18:39:29.553Z,85.24
2018-08-31T18:44:24.069Z,85.98
2018-08-31T18:49:18.599Z,86.10
2018-08-31T18:54:13.132Z,86.07
2018-08-31T18:59:07.741Z,84.02
2018-08-31T19:20:17.750Z,84.67
2018-08-31T19:25:12.337Z,85.61
2018-08-31T19:30:07.545Z,84.71
2018-08-31T19:35:02.173Z,83.56
2018-08-31T19:39:56.717Z,84.82
2018-08-31T20:01:05.878Z,85.95
2018-08-31T20:06:00.404Z,85.56
2018-08-31T20:10:54.911Z,85.02
2018-08-31T20:15:49.408Z,84.55
2018-08-31T20:20:44.067Z,85.01
2018-08-31T20:25:38.651Z,83.21
2018-08-31T20:30:33.180Z,83.75
2018-08-31T20:35:27.864Z,82.38
2018-08-31T20:40:22.411Z,84.54
2018-08-31T21:01:31.363Z,81.56
2018-08-31T21:06:25.909Z,81.74
2018-08-31T21:11:20.459Z,80.89
2018-08-31T21:16:14.979Z,81.65
2018-08-31T21:21:09.675Z,82.89
2018-08-31T21:26:04.345Z,81.72
2018-08-31T21:30:58.816Z,82.13
2018-08-31T21:35:53.520Z,81.39
2018-08-31T21:40:48.024Z,80.82
2018-08-31T22:01:58.043Z,80.58
2018-08-31T22:06:52.608Z,81.16
2018-08-31T22:11:47.284Z,82.14
2018-08-31T22:16:41.924Z,81.14
2018-08-31T22:21:36.420Z,81.07
2018-08-31T22:26:30.985Z,82.01
2018-08-31T22:31:25.506Z,81.36
2018-08-31T22:36:20.036Z,79.75
2018-08-31T22:41:14.541Z,81.57
2018-08-31T23:02:23.828Z,80.23
2018-08-31T23:07:23.456Z,79.34
2018-08-31T23:12:17.967Z,79.84
2018-08-31T23:17:12.571Z,78.21
2018-08-31T23:22:07.660Z,78.32
2018-08-31T23:27:02.203Z,80.12
2018-08-31T23:31:56.748Z,81.28
2018-08-31T23:36:51.280Z,79.69
2018-08-31T23:41:45.864Z,79.74
